Time;durP1;ratioP1;P1;durP2;ratioP2;P2;SDS_P1;SDS_P2;PMS_P1;PMS_P2;Temp;Humidity;BMP_temperature;BMP_pressure;BME280_temperature;BME280_humidity;BME280_pressure;Samples;Min_cycle;Max_cycle;Signal;HPM_P1;HPM_P2
2022/01/26 00:06:33;;;;;;;1.95;0.90;;;;;;;;;;5096505;28;20038;-78
2022/01/26 00:08:59;;;;;;;2.75;2.55;;;;;;;;;;5090082;28;20031;-78
2022/01/26 00:11:27;;;;;;;1.40;1.30;;;;;;;;;;5089923;28;20022;-78
2022/01/26 00:13:54;;;;;;;1.30;1.27;;;;;;;;;;5072981;28;20044;-78
2022/01/26 00:16:27;;;;;;;1.35;0.85;;;;;;;;;;5095010;28;20596;-78
2022/01/26 00:18:56;;;;;;;1.58;1.52;;;;;;;;;;5074538;28;20032;-78
2022/01/26 00:21:39;;;;;;;0.73;0.73;;;;;;;;;;5067774;28;20473;-78
2022/01/26 00:29:19;;;;;;;2.95;2.38;;;;;;;;;;5086565;28;20257;-77
2022/01/26 00:40:10;;;;;;;1.92;0.85;;;;;;;;;;5084359;28;20052;-77
2022/01/26 00:42:39;;;;;;;0.50;0.50;;;;;;;;;;5082726;28;20055;-77
2022/01/26 00:45:05;;;;;;;0.52;0.52;;;;;;;;;;5080482;28;20038;-77
2022/01/26 00:47:32;;;;;;;0.93;0.93;;;;;;;;;;5081106;28;20406;-77
2022/01/26 00:50:03;;;;;;;12.25;1.95;;;;;;;;;;5080384;28;20055;-77
2022/01/26 00:52:44;;;;;;;0.85;0.85;;;;;;;;;;5078486;28;20044;-78
2022/01/26 00:55:11;;;;;;;0.28;0.28;;;;;;;;;;5082307;28;20031;-77
2022/01/26 00:57:37;;;;;;;1.17;1.17;;;;;;;;;;5078180;28;20816;-78
2022/01/26 01:00:06;;;;;;;1.63;1.05;;;;;;;;;;5080315;28;20111;-77
2022/01/26 01:02:33;;;;;;;3.15;1.17;;;;;;;;;;5081319;28;20024;-78
2022/01/26 01:05:02;;;;;;;1.08;1.05;;;;;;;;;;5070004;28;20127;-80
2022/01/26 01:07:33;;;;;;;0.80;0.80;;;;;;;;;;5089785;28;20023;-78
2022/01/26 01:09:59;;;;;;;2.80;1.90;;;;;;;;;;5082851;28;20020;-78
2022/01/26 01:12:25;;;;;;;1.17;1.13;;;;;;;;;;5084491;28;20040;-79
2022/01/26 01:14:52;;;;;;;1.67;1.60;;;;;;;;;;5078847;28;20028;-80
2022/01/26 01:17:25;;;;;;;0.73;0.73;;;;;;;;;;5072816;28;20781;-79
2022/01/26 01:20:12;;;;;;;0.63;0.63;;;;;;;;;;5084518;28;20475;-79
2022/01/26 01:30:44;;;;;;;2.08;1.88;;;;;;;;;;5079705;28;20043;-78
2022/01/26 01:33:15;;;;;;;2.53;0.70;;;;;;;;;;5088805;28;20039;-78
2022/01/26 01:35:43;;;;;;;2.58;0.80;;;;;;;;;;5076322;28;20128;-77
2022/01/26 01:38:14;;;;;;;1.92;1.17;;;;;;;;;;5092773;28;20031;-78
2022/01/26 01:40:42;;;;;;;1.08;1.05;;;;;;;;;;5080404;28;20037;-79
2022/01/26 01:43:09;;;;;;;0.40;0.40;;;;;;;;;;5080514;28;20100;-78
2022/01/26 01:45:36;;;;;;;1.08;1.08;;;;;;;;;;5081959;28;20089;-79
2022/01/26 01:48:03;;;;;;;1.25;1.15;;;;;;;;;;5084050;28;20108;-79
2022/01/26 01:50:29;;;;;;;0.45;0.45;;;;;;;;;;5087903;28;20047;-79
2022/01/26 01:53:00;;;;;;;0.38;0.38;;;;;;;;;;5078812;28;20045;-79
2022/01/26 01:55:28;;;;;;;0.65;0.65;;;;;;;;;;5092419;28;20414;-79
2022/01/26 01:57:55;;;;;;;1.45;1.35;;;;;;;;;;5073788;28;20030;-79
2022/01/26 02:00:21;;;;;;;1.73;0.73;;;;;;;;;;5087033;28;20065;-79
2022/01/26 02:02:47;;;;;;;0.10;0.10;;;;;;;;;;5083468;28;20028;-78
2022/01/26 02:05:13;;;;;;;0.20;0.20;;;;;;;;;;5087177;28;20024;-78
2022/01/26 02:07:39;;;;;;;2.35;1.30;;;;;;;;;;5087221;28;20128;-79
2022/01/26 02:10:06;;;;;;;1.03;0.50;;;;;;;;;;5085395;28;20093;-78
2022/01/26 02:12:34;;;;;;;2.63;1.85;;;;;;;;;;5084756;28;20765;-79
2022/01/26 02:15:10;;;;;;;0.45;0.45;;;;;;;;;;5084846;28;20673;-78
2022/01/26 02:50:57;;;;;;;0.40;0.40;;;;;;;;;;5083028;28;20055;-77
2022/01/26 02:53:43;;;;;;;0.28;0.28;;;;;;;;;;5082846;28;20074;-77
2022/01/26 02:56:06;;;;;;;1.63;1.42;;;;;;;;;;5086740;28;20040;-77
2022/01/26 03:04:00;;;;;;;0.40;0.40;;;;;;;;;;5083288;28;20032;-76
2022/01/26 03:06:34;;;;;;;0.52;0.52;;;;;;;;;;5083013;28;20035;-77
2022/01/26 03:09:07;;;;;;;0.88;0.52;;;;;;;;;;5083066;28;20522;-77
2022/01/26 03:11:36;;;;;;;0.60;0.60;;;;;;;;;;5090336;28;20024;-78
2022/01/26 03:14:15;;;;;;;0.70;0.70;;;;;;;;;;5081861;28;20150;-79
2022/01/26 03:16:47;;;;;;;0.77;0.77;;;;;;;;;;5082167;28;20488;-78
2022/01/26 03:19:22;;;;;;;0.17;0.17;;;;;;;;;;5082356;28;20032;-78
2022/01/26 03:30:03;;;;;;;0.77;0.77;;;;;;;;;;5081046;28;20138;-77
2022/01/26 03:35:13;;;;;;;0.20;0.20;;;;;;;;;;5081504;28;20059;-78
2022/01/26 03:37:39;;;;;;;0.80;0.80;;;;;;;;;;5081589;28;20032;-78
2022/01/26 03:40:13;;;;;;;1.10;1.10;;;;;;;;;;5082161;28;20109;-78
2022/01/26 03:42:39;;;;;;;0.50;0.50;;;;;;;;;;5081422;28;20039;-78
2022/01/26 03:45:05;;;;;;;0.73;0.70;;;;;;;;;;5082638;28;20028;-78
2022/01/26 03:47:31;;;;;;;1.08;0.82;;;;;;;;;;5062456;28;20029;-78
2022/01/26 03:49:57;;;;;;;0.68;0.68;;;;;;;;;;5065565;28;20039;-78
2022/01/26 03:52:23;;;;;;;0.73;0.73;;;;;;;;;;5081532;28;20704;-80
2022/01/26 03:54:49;;;;;;;0.25;0.25;;;;;;;;;;5083764;28;20036;-79
2022/01/26 03:57:15;;;;;;;1.13;1.13;;;;;;;;;;5081596;28;20109;-78
2022/01/26 03:59:41;;;;;;;10.95;0.68;;;;;;;;;;5080469;28;20043;-78
2022/01/26 04:02:07;;;;;;;1.25;1.15;;;;;;;;;;5081370;28;20514;-78
2022/01/26 04:04:42;;;;;;;0.45;0.45;;;;;;;;;;5083821;28;20753;-78
2022/01/26 04:07:08;;;;;;;2.63;0.65;;;;;;;;;;5084478;28;20066;-77
2022/01/26 04:09:34;;;;;;;0.80;0.80;;;;;;;;;;5081461;28;20028;-77
2022/01/26 04:12:00;;;;;;;0.43;0.43;;;;;;;;;;5083334;28;20399;-78
2022/01/26 04:14:30;;;;;;;1.97;0.87;;;;;;;;;;5063398;28;20050;-78
2022/01/26 04:16:56;;;;;;;0.35;0.35;;;;;;;;;;5082904;28;20028;-77
2022/01/26 04:19:23;;;;;;;0.73;0.73;;;;;;;;;;5083178;28;20043;-78
2022/01/26 04:29:17;;;;;;;0.22;0.22;;;;;;;;;;5081757;28;20506;-78
2022/01/26 04:31:43;;;;;;;1.27;0.88;;;;;;;;;;5083668;28;20025;-78
2022/01/26 04:34:10;;;;;;;0.75;0.75;;;;;;;;;;5083837;28;20192;-78
2022/01/26 04:36:49;;;;;;;1.57;0.90;;;;;;;;;;5082247;28;20085;-78
2022/01/26 04:39:17;;;;;;;0.63;0.63;;;;;;;;;;5078870;28;20546;-77
2022/01/26 04:41:52;;;;;;;0.50;0.50;;;;;;;;;;5080524;28;20360;-79
2022/01/26 04:44:28;;;;;;;1.85;1.08;;;;;;;;;;5082374;28;20030;-79
2022/01/26 04:46:54;;;;;;;0.82;0.82;;;;;;;;;;5062418;28;20147;-79
2022/01/26 04:49:21;;;;;;;0.77;0.68;;;;;;;;;;5079399;28;20043;-78
2022/01/26 04:51:47;;;;;;;0.30;0.30;;;;;;;;;;5071870;28;20036;-78
2022/01/26 04:54:13;;;;;;;0.80;0.80;;;;;;;;;;5068109;28;20035;-79
2022/01/26 04:56:39;;;;;;;0.50;0.50;;;;;;;;;;5096731;28;20664;-80
2022/01/26 04:59:05;;;;;;;0.73;0.73;;;;;;;;;;5087631;28;20286;-79
2022/01/26 05:01:31;;;;;;;1.27;0.60;;;;;;;;;;5087164;28;20028;-78
2022/01/26 05:03:57;;;;;;;1.55;1.08;;;;;;;;;;5070169;28;20035;-79
2022/01/26 05:06:24;;;;;;;1.50;0.90;;;;;;;;;;5077560;28;20024;-79
2022/01/26 05:08:50;;;;;;;0.73;0.73;;;;;;;;;;5082991;28;20281;-80
2022/01/26 05:11:27;;;;;;;0.65;0.65;;;;;;;;;;5080693;28;20471;-79
2022/01/26 05:13:54;;;;;;;0.77;0.77;;;;;;;;;;5088960;28;20798;-79
2022/01/26 05:16:20;;;;;;;0.30;0.30;;;;;;;;;;5086752;28;20036;-79
2022/01/26 05:18:46;;;;;;;3.73;1.50;;;;;;;;;;5090934;28;20047;-78
2022/01/26 05:21:12;;;;;;;1.33;0.63;;;;;;;;;;5088668;28;20019;-79
2022/01/26 05:23:38;;;;;;;0.63;0.63;;;;;;;;;;5070018;28;20973;-80
2022/01/26 05:26:04;;;;;;;0.30;0.30;;;;;;;;;;5079673;28;20040;-79
2022/01/26 05:28:30;;;;;;;0.22;0.22;;;;;;;;;;5067701;28;20036;-79
2022/01/26 05:30:56;;;;;;;0.47;0.47;;;;;;;;;;5085129;28;20487;-79
2022/01/26 05:33:23;;;;;;;3.17;2.33;;;;;;;;;;5081578;28;20040;-79
2022/01/26 05:35:50;;;;;;;0.50;0.50;;;;;;;;;;5087525;28;20409;-79
2022/01/26 05:38:16;;;;;;;;;;;;;;;;;;5093090;28;20039;-79
2022/01/26 05:40:42;;;;;;;0.20;0.20;;;;;;;;;;5090896;28;19916;-80
2022/01/26 05:43:08;;;;;;;0.23;0.23;;;;;;;;;;5083412;28;20101;-81
2022/01/26 05:45:37;;;;;;;0.10;0.10;;;;;;;;;;5087069;28;20302;-82
2022/01/26 05:48:08;;;;;;;0.32;0.32;;;;;;;;;;5086576;28;20025;-80
2022/01/26 05:50:34;;;;;;;1.48;1.38;;;;;;;;;;5083641;28;20060;-80
2022/01/26 05:53:01;;;;;;;0.57;0.57;;;;;;;;;;5082672;28;20036;-79
2022/01/26 05:55:27;;;;;;;0.40;0.40;;;;;;;;;;5083734;28;20032;-81
2022/01/26 05:57:53;;;;;;;1.10;1.07;;;;;;;;;;5076058;28;20024;-81
2022/01/26 06:00:19;;;;;;;2.10;1.95;;;;;;;;;;5086361;28;20069;-80
2022/01/26 06:02:45;;;;;;;1.87;1.77;;;;;;;;;;5087855;28;20146;-80
2022/01/26 06:05:11;;;;;;;0.40;0.40;;;;;;;;;;5089978;28;20339;-80
2022/01/26 06:07:37;;;;;;;0.20;0.20;;;;;;;;;;5069531;28;20028;-80
2022/01/26 06:10:04;;;;;;;0.23;0.23;;;;;;;;;;5090699;28;20032;-79
2022/01/26 06:12:33;;;;;;;0.47;0.47;;;;;;;;;;5085019;28;20949;-80
2022/01/26 06:15:01;;;;;;;0.43;0.43;;;;;;;;;;5075684;28;20738;-81
2022/01/26 06:17:27;;;;;;;3.90;2.25;;;;;;;;;;5084415;28;20848;-82
2022/01/26 06:19:53;;;;;;;1.00;1.00;;;;;;;;;;5084555;28;20061;-80
2022/01/26 06:22:19;;;;;;;0.30;0.30;;;;;;;;;;5089888;28;20019;-81
2022/01/26 06:24:45;;;;;;;5.10;1.38;;;;;;;;;;5085984;28;20049;-82
2022/01/26 06:27:11;;;;;;;0.30;0.30;;;;;;;;;;5093709;28;20383;-81
2022/01/26 06:29:37;;;;;;;1.15;1.15;;;;;;;;;;5092406;28;20043;-83
2022/01/26 06:32:03;;;;;;;3.43;1.23;;;;;;;;;;5083054;28;20032;-81
2022/01/26 06:34:29;;;;;;;1.52;1.08;;;;;;;;;;5089658;28;20051;-82
2022/01/26 06:36:56;;;;;;;0.60;0.60;;;;;;;;;;5087283;28;20106;-81
2022/01/26 06:39:22;;;;;;;0.30;0.30;;;;;;;;;;5081352;28;20560;-81
2022/01/26 06:41:54;;;;;;;0.83;0.83;;;;;;;;;;5081207;28;20832;-80
2022/01/26 06:47:17;;;;;;;5.55;0.55;;;;;;;;;;5069899;28;20873;-81
2022/01/26 06:49:43;;;;;;;0.70;0.63;;;;;;;;;;5084527;28;20052;-79
2022/01/26 06:52:09;;;;;;;0.38;0.38;;;;;;;;;;5082983;28;20044;-80
2022/01/26 06:54:37;;;;;;;0.30;0.30;;;;;;;;;;5078367;28;20063;-80
2022/01/26 06:57:03;;;;;;;0.37;0.37;;;;;;;;;;5077014;28;20059;-80
2022/01/26 06:59:29;;;;;;;0.32;0.32;;;;;;;;;;5077215;28;20024;-80
2022/01/26 07:01:55;;;;;;;0.30;0.30;;;;;;;;;;5063679;28;20025;-80
2022/01/26 07:04:21;;;;;;;1.60;1.42;;;;;;;;;;5079887;28;20089;-80
2022/01/26 07:06:47;;;;;;;0.83;0.77;;;;;;;;;;5078376;28;20028;-80
2022/01/26 07:09:13;;;;;;;0.65;0.65;;;;;;;;;;5080303;28;20027;-80
2022/01/26 07:11:39;;;;;;;0.70;0.70;;;;;;;;;;5078055;28;20047;-80
2022/01/26 07:14:09;;;;;;;0.67;0.67;;;;;;;;;;5065660;28;20298;-81
2022/01/26 07:22:04;;;;;;;0.25;0.25;;;;;;;;;;5073417;28;20039;-82
2022/01/26 07:24:30;;;;;;;0.70;0.70;;;;;;;;;;5070454;28;20110;-82
2022/01/26 07:26:56;;;;;;;0.37;0.37;;;;;;;;;;5064733;28;20475;-81
2022/01/26 07:29:23;;;;;;;0.30;0.30;;;;;;;;;;5065226;28;20036;-83
2022/01/26 07:31:50;;;;;;;0.73;0.73;;;;;;;;;;5080539;28;20020;-85
2022/01/26 07:34:19;;;;;;;1.70;1.38;;;;;;;;;;5061605;28;20109;-82
2022/01/26 07:36:47;;;;;;;0.70;0.52;;;;;;;;;;5077216;28;20066;-84
2022/01/26 07:39:17;;;;;;;1.85;1.20;;;;;;;;;;5064578;28;20032;-83
2022/01/26 07:41:43;;;;;;;1.05;0.98;;;;;;;;;;5080849;28;20032;-79
2022/01/26 07:44:09;;;;;;;1.30;1.20;;;;;;;;;;5079005;28;20127;-82
2022/01/26 07:46:35;;;;;;;0.60;0.60;;;;;;;;;;5079766;28;20063;-82
2022/01/26 07:49:02;;;;;;;0.10;0.10;;;;;;;;;;5059748;28;20036;-82
2022/01/26 07:51:28;;;;;;;1.40;0.82;;;;;;;;;;5074072;28;20844;-82
2022/01/26 07:53:54;;;;;;;0.10;0.10;;;;;;;;;;5076629;28;20048;-82
2022/01/26 07:56:20;;;;;;;0.32;0.32;;;;;;;;;;5078931;28;20032;-82
2022/01/26 07:58:48;;;;;;;0.20;0.20;;;;;;;;;;5083221;28;20071;-81
2022/01/26 08:01:15;;;;;;;0.85;0.85;;;;;;;;;;5071456;28;20025;-81
2022/01/26 08:03:41;;;;;;;0.28;0.28;;;;;;;;;;5071904;28;20509;-81
2022/01/26 08:06:11;;;;;;;0.80;0.80;;;;;;;;;;5075913;28;20039;-80
2022/01/26 08:08:37;;;;;;;0.98;0.55;;;;;;;;;;5080898;28;20070;-82
2022/01/26 08:11:03;;;;;;;1.02;0.85;;;;;;;;;;5088133;28;20149;-83
2022/01/26 08:13:29;;;;;;;0.73;0.70;;;;;;;;;;5085872;28;20067;-81
2022/01/26 08:15:57;;;;;;;0.10;0.10;;;;;;;;;;5084338;28;20028;-82
2022/01/26 08:18:24;;;;;;;0.70;0.70;;;;;;;;;;5057555;28;20028;-81
2022/01/26 08:20:50;;;;;;;0.50;0.50;;;;;;;;;;5081945;28;20024;-81
2022/01/26 08:23:17;;;;;;;1.50;1.40;;;;;;;;;;5063789;28;20458;-80
2022/01/26 08:25:43;;;;;;;0.98;0.60;;;;;;;;;;5083122;28;20028;-82
2022/01/26 08:28:18;;;;;;;0.22;0.22;;;;;;;;;;5070412;28;20028;-82
2022/01/26 08:30:44;;;;;;;0.65;0.65;;;;;;;;;;5079104;28;20016;-81
2022/01/26 08:33:10;;;;;;;0.40;0.40;;;;;;;;;;5080475;28;20090;-83
2022/01/26 08:35:37;;;;;;;1.20;1.10;;;;;;;;;;5079865;28;20067;-81
2022/01/26 08:38:03;;;;;;;1.02;1.02;;;;;;;;;;5084121;28;20109;-83
2022/01/26 08:40:31;;;;;;;0.57;0.57;;;;;;;;;;5068649;28;20039;-81
2022/01/26 08:42:57;;;;;;;1.65;1.55;;;;;;;;;;5084674;28;20030;-80
2022/01/26 08:45:24;;;;;;;1.77;1.67;;;;;;;;;;5081796;28;20042;-81
2022/01/26 08:47:50;;;;;;;0.98;0.98;;;;;;;;;;5079025;28;20922;-81
2022/01/26 08:50:17;;;;;;;1.83;1.00;;;;;;;;;;5083419;28;20056;-82
2022/01/26 08:52:43;;;;;;;0.20;0.17;;;;;;;;;;5081598;28;20059;-81
2022/01/26 08:55:10;;;;;;;0.73;0.73;;;;;;;;;;5062630;28;20056;-80
2022/01/26 08:57:36;;;;;;;0.63;0.63;;;;;;;;;;5079201;28;20125;-80
2022/01/26 09:00:05;;;;;;;0.45;0.45;;;;;;;;;;5076795;28;20036;-79
2022/01/26 09:02:31;;;;;;;0.30;0.30;;;;;;;;;;5069510;28;20032;-80
2022/01/26 09:04:57;;;;;;;1.40;0.83;;;;;;;;;;5080310;28;20028;-79
2022/01/26 09:07:23;;;;;;;0.40;0.40;;;;;;;;;;5068639;28;20038;-81
2022/01/26 09:09:49;;;;;;;1.30;0.90;;;;;;;;;;5085424;28;20032;-81
2022/01/26 09:12:17;;;;;;;0.80;0.67;;;;;;;;;;5083077;28;20274;-81
2022/01/26 09:14:44;;;;;;;0.40;0.40;;;;;;;;;;5078525;28;20044;-81
2022/01/26 09:17:11;;;;;;;1.35;1.25;;;;;;;;;;5067914;28;20025;-81
2022/01/26 09:19:38;;;;;;;0.57;0.55;;;;;;;;;;5067308;28;20029;-80
2022/01/26 09:22:04;;;;;;;0.08;0.08;;;;;;;;;;5067648;28;20020;-81
2022/01/26 09:24:31;;;;;;;0.73;0.73;;;;;;;;;;5075687;28;20028;-81
2022/01/26 09:26:57;;;;;;;0.20;0.20;;;;;;;;;;5076924;28;20840;-80
2022/01/26 09:29:23;;;;;;;1.00;0.87;;;;;;;;;;5067223;28;20025;-81
2022/01/26 09:31:49;;;;;;;1.30;0.77;;;;;;;;;;5082716;28;20039;-81
2022/01/26 09:34:19;;;;;;;0.20;0.20;;;;;;;;;;5080883;28;20107;-81
2022/01/26 09:36:45;;;;;;;1.95;0.35;;;;;;;;;;5078586;28;20274;-81
2022/01/26 09:39:15;;;;;;;0.80;0.47;;;;;;;;;;5078631;28;20498;-81
2022/01/26 09:41:41;;;;;;;0.50;0.50;;;;;;;;;;5078947;28;20043;-81
2022/01/26 09:44:08;;;;;;;0.10;0.10;;;;;;;;;;5066996;28;20028;-81
2022/01/26 09:46:34;;;;;;;0.93;0.93;;;;;;;;;;5081161;28;20422;-81
2022/01/26 09:49:01;;;;;;;1.80;0.98;;;;;;;;;;5079745;28;20081;-81
2022/01/26 09:51:28;;;;;;;3.40;1.90;;;;;;;;;;5077879;28;20376;-81
2022/01/26 09:54:04;;;;;;;0.55;0.55;;;;;;;;;;5077591;28;20048;-81
2022/01/26 09:56:30;;;;;;;0.10;0.10;;;;;;;;;;5077408;28;20024;-81
2022/01/26 09:58:57;;;;;;;0.10;0.10;;;;;;;;;;5080397;28;20781;-81
2022/01/26 10:01:23;;;;;;;1.00;0.68;;;;;;;;;;5067770;28;20817;-81
2022/01/26 10:03:50;;;;;;;0.20;0.20;;;;;;;;;;5077815;28;20055;-81
2022/01/26 10:06:24;;;;;;;1.70;0.68;;;;;;;;;;5077587;28;20032;-81
2022/01/26 10:08:58;;;;;;;0.38;0.38;;;;;;;;;;5077420;28;20032;-80
2022/01/26 10:17:35;;;;;;;0.10;0.10;;;;;;;;;;5067251;28;20551;-81
2022/01/26 10:19:55;;;;;;;0.30;0.30;;;;;;;;;;5062034;28;20458;-81
2022/01/26 10:22:21;;;;;;;;;;;;;;;;;;5080203;28;20036;-81
2022/01/26 10:24:47;;;;;;;0.68;0.43;;;;;;;;;;5077177;28;19957;-81
2022/01/26 10:27:13;;;;;;;0.20;0.20;;;;;;;;;;5077036;28;20486;-81
2022/01/26 10:29:39;;;;;;;0.30;0.22;;;;;;;;;;5078172;28;20032;-80
2022/01/26 10:32:12;;;;;;;0.57;0.30;;;;;;;;;;5065958;28;20031;-81
2022/01/26 10:34:38;;;;;;;3.72;1.10;;;;;;;;;;5079549;28;20035;-81
2022/01/26 10:37:04;;;;;;;0.10;0.10;;;;;;;;;;5061263;28;20062;-81
2022/01/26 10:39:45;;;;;;;0.77;0.50;;;;;;;;;;5070522;28;20477;-80
2022/01/26 10:42:13;;;;;;;0.30;0.30;;;;;;;;;;5071910;28;20016;-81
2022/01/26 10:44:54;;;;;;;0.38;0.38;;;;;;;;;;5075165;28;20032;-81
2022/01/26 10:47:27;;;;;;;0.28;0.28;;;;;;;;;;5077723;28;20024;-81
2022/01/26 10:50:31;;;;;;;0.40;0.40;;;;;;;;;;5063970;28;20027;-81
2022/01/26 10:53:05;;;;;;;4.18;2.17;;;;;;;;;;5064998;28;20486;-80
2022/01/26 10:55:32;;;;;;;0.68;0.65;;;;;;;;;;5079602;28;20100;-80
2022/01/26 10:57:58;;;;;;;1.98;0.73;;;;;;;;;;5078296;28;20032;-80
2022/01/26 11:00:24;;;;;;;0.20;0.20;;;;;;;;;;5072267;28;20780;-81
2022/01/26 11:02:50;;;;;;;1.33;1.23;;;;;;;;;;5068834;28;20028;-81
2022/01/26 11:05:16;;;;;;;2.27;2.17;;;;;;;;;;5060508;28;20153;-81
2022/01/26 11:07:45;;;;;;;1.45;0.70;;;;;;;;;;5080256;28;20115;-81
2022/01/26 11:10:12;;;;;;;0.17;0.15;;;;;;;;;;5079240;28;20024;-81
2022/01/26 11:12:40;;;;;;;0.85;0.70;;;;;;;;;;5076860;28;20761;-81
2022/01/26 11:15:06;;;;;;;0.10;0.10;;;;;;;;;;5074827;28;20038;-81
2022/01/26 11:17:37;;;;;;;0.97;0.93;;;;;;;;;;5068652;28;20063;-81
2022/01/26 11:20:19;;;;;;;1.25;1.17;;;;;;;;;;5064256;28;20040;-80
2022/01/26 11:22:48;;;;;;;1.80;0.88;;;;;;;;;;5080440;28;20052;-81
2022/01/26 11:25:14;;;;;;;1.70;1.60;;;;;;;;;;5078899;28;20020;-81
2022/01/26 11:27:42;;;;;;;0.82;0.82;;;;;;;;;;5076652;28;20145;-81
2022/01/26 11:30:07;;;;;;;;;;;;;;;;;;5078598;28;20684;-80
2022/01/26 11:32:38;;;;;;;0.45;0.35;;;;;;;;;;5081021;28;19919;-81
2022/01/26 11:35:07;;;;;;;0.32;0.32;;;;;;;;;;5084028;28;20031;-80
2022/01/26 11:45:18;;;;;;;0.70;0.70;;;;;;;;;;5076482;28;20843;-81
2022/01/26 11:48:01;;;;;;;0.35;0.35;;;;;;;;;;5071302;28;20029;-81
2022/01/26 11:50:28;;;;;;;0.68;0.57;;;;;;;;;;5082646;28;20036;-80
2022/01/26 11:53:16;;;;;;;1.15;1.00;;;;;;;;;;5068559;28;20495;-80
2022/01/26 11:55:52;;;;;;;1.15;1.00;;;;;;;;;;5075526;28;20457;-80
2022/01/26 11:58:35;;;;;;;4.63;2.58;;;;;;;;;;5069086;28;20036;-79
2022/01/26 12:03:43;;;;;;;1.88;1.65;;;;;;;;;;5068181;28;20036;-80
2022/01/26 12:06:18;;;;;;;0.60;0.60;;;;;;;;;;5068338;28;20073;-80
2022/01/26 12:08:45;;;;;;;1.52;0.80;;;;;;;;;;5068351;28;20100;-80
2022/01/26 12:11:12;;;;;;;1.38;1.27;;;;;;;;;;5068669;28;20024;-79
2022/01/26 12:13:39;;;;;;;0.73;0.73;;;;;;;;;;5065765;28;20654;-80
2022/01/26 12:16:10;;;;;;;1.33;1.15;;;;;;;;;;5068173;28;20028;-80
2022/01/26 12:19:10;;;;;;;1.33;1.27;;;;;;;;;;5074094;28;20028;-80
2022/01/26 12:35:54;;;;;;;1.02;0.93;;;;;;;;;;5068185;28;20111;-81
2022/01/26 12:38:39;;;;;;;5.95;2.33;;;;;;;;;;5068200;28;20154;-81
2022/01/26 12:44:08;;;;;;;1.00;0.75;;;;;;;;;;5004805;28;20462;-81
2022/01/26 12:46:35;;;;;;;0.68;0.68;;;;;;;;;;5005400;28;21027;-81
2022/01/26 12:49:06;;;;;;;2.70;1.00;;;;;;;;;;5004789;28;20116;-81
2022/01/26 12:51:39;;;;;;;0.88;0.88;;;;;;;;;;5004953;28;20963;-81
2022/01/26 12:54:05;;;;;;;0.52;0.50;;;;;;;;;;5021488;28;20048;-81
2022/01/26 12:56:32;;;;;;;1.77;1.58;;;;;;;;;;5009150;28;20033;-81
2022/01/26 12:59:19;;;;;;;2.65;1.23;;;;;;;;;;5006506;28;20689;-81
2022/01/26 13:01:45;;;;;;;1.70;0.98;;;;;;;;;;4999570;28;20084;-80
2022/01/26 13:04:13;;;;;;;1.75;1.65;;;;;;;;;;5006880;28;21084;-81
2022/01/26 13:06:46;;;;;;;0.20;0.20;;;;;;;;;;5007276;28;20030;-81
2022/01/26 13:09:16;;;;;;;0.80;0.65;;;;;;;;;;5017248;28;20042;-81
2022/01/26 13:11:44;;;;;;;1.85;1.45;;;;;;;;;;5004738;28;20046;-80
2022/01/26 13:14:19;;;;;;;0.20;0.20;;;;;;;;;;5004688;28;20042;-81
2022/01/26 13:17:19;;;;;;;1.48;0.73;;;;;;;;;;5002745;28;20097;-81
2022/01/26 13:25:41;;;;;;;0.40;0.40;;;;;;;;;;5066291;28;20042;-81
2022/01/26 13:41:44;;;;;;;1.35;1.25;;;;;;;;;;5066595;28;20044;-81
2022/01/26 13:59:45;;;;;;;0.52;0.52;;;;;;;;;;5017891;28;20094;-81
2022/01/26 14:02:11;;;;;;;1.38;1.27;;;;;;;;;;5006403;28;20423;-81
2022/01/26 14:04:38;;;;;;;3.40;1.80;;;;;;;;;;5019815;28;20034;-81
2022/01/26 14:07:04;;;;;;;0.90;0.82;;;;;;;;;;5017564;28;20053;-81
2022/01/26 14:09:30;;;;;;;1.35;0.98;;;;;;;;;;5000871;28;20086;-81
2022/01/26 14:11:58;;;;;;;0.57;0.57;;;;;;;;;;5007024;28;20513;-82
2022/01/26 14:14:31;;;;;;;1.50;1.13;;;;;;;;;;5017091;28;20077;-81
2022/01/26 14:17:00;;;;;;;1.10;1.10;;;;;;;;;;5017165;28;20112;-81
2022/01/26 14:26:59;;;;;;;1.30;0.50;;;;;;;;;;5058599;28;20115;-81
2022/01/26 14:32:17;;;;;;;2.10;1.67;;;;;;;;;;5066431;28;20195;-81
2022/01/26 16:16:29;;;;;;;0.65;0.55;;;;;;;;;;5083536;28;20161;-84
2022/01/26 18:15:58;;;;;;;1.92;1.63;;;;;;;;;;5085732;28;20035;-81
2022/01/26 18:26:42;;;;;;;2.83;2.15;;;;;;;;;;5077703;28;20038;-81
2022/01/26 18:50:39;;;;;;;13.57;4.40;;;;;;;;;;5081690;28;20119;-82
2022/01/26 18:53:07;;;;;;;7.07;4.82;;;;;;;;;;5080257;28;20043;-85
2022/01/26 18:55:33;;;;;;;3.25;1.58;;;;;;;;;;5080414;28;20032;-82
2022/01/26 18:57:59;;;;;;;4.20;1.05;;;;;;;;;;5084451;28;20480;-85
2022/01/26 19:00:25;;;;;;;9.07;2.47;;;;;;;;;;5083778;28;20907;-84
2022/01/26 19:02:51;;;;;;;2.07;1.17;;;;;;;;;;5078982;28;20031;-80
2022/01/26 19:05:17;;;;;;;3.05;2.40;;;;;;;;;;5064359;28;20833;-81
2022/01/26 19:07:44;;;;;;;1.43;1.33;;;;;;;;;;5080883;28;20104;-82
2022/01/26 19:10:11;;;;;;;2.80;1.80;;;;;;;;;;5081805;28;20028;-81
2022/01/26 19:12:39;;;;;;;0.45;0.45;;;;;;;;;;5076363;28;20024;-81
2022/01/26 19:15:11;;;;;;;3.20;1.55;;;;;;;;;;5080396;28;20152;-81
2022/01/26 19:17:44;;;;;;;1.27;0.82;;;;;;;;;;5074722;28;20021;-82
2022/01/26 19:43:51;;;;;;;1.42;1.13;;;;;;;;;;5084950;28;20028;-82
2022/01/26 19:51:46;;;;;;;5.45;1.45;;;;;;;;;;5084137;28;20047;-82
2022/01/26 19:54:12;;;;;;;1.00;0.98;;;;;;;;;;5062814;28;20048;-82
2022/01/26 19:56:38;;;;;;;5.30;2.47;;;;;;;;;;5082001;28;20031;-82
2022/01/26 19:59:04;;;;;;;1.48;1.40;;;;;;;;;;5066554;28;20032;-81
2022/01/26 20:01:30;;;;;;;0.85;0.70;;;;;;;;;;5068537;28;20059;-82
2022/01/26 20:03:56;;;;;;;4.22;2.10;;;;;;;;;;5070863;28;20031;-82
2022/01/26 20:06:22;;;;;;;3.42;2.05;;;;;;;;;;5069761;28;20427;-81
2022/01/26 20:09:10;;;;;;;1.02;1.02;;;;;;;;;;5088863;28;20087;-81
2022/01/26 20:11:55;;;;;;;1.48;1.20;;;;;;;;;;5070650;28;20031;-81
2022/01/26 20:14:26;;;;;;;4.10;2.40;;;;;;;;;;5084585;28;20043;-81
2022/01/26 20:16:52;;;;;;;2.72;1.88;;;;;;;;;;5066710;28;20024;-82
2022/01/26 20:19:18;;;;;;;1.00;1.00;;;;;;;;;;5075273;28;20032;-82
2022/01/26 20:21:45;;;;;;;1.02;1.02;;;;;;;;;;5084383;28;20489;-82
2022/01/26 20:24:14;;;;;;;;;;;;;;;;;;5084662;28;20741;-82
2022/01/26 20:26:40;;;;;;;1.58;1.48;;;;;;;;;;5076725;28;20002;-82
2022/01/26 20:29:06;;;;;;;1.67;1.50;;;;;;;;;;5089337;28;20169;-82
2022/01/26 20:31:32;;;;;;;3.20;2.77;;;;;;;;;;5072865;28;20058;-81
2022/01/26 20:33:58;;;;;;;1.25;1.17;;;;;;;;;;5083693;28;20653;-81
2022/01/26 20:36:28;;;;;;;0.87;0.87;;;;;;;;;;5063868;28;20032;-83
2022/01/26 20:38:55;;;;;;;1.95;1.70;;;;;;;;;;5067219;28;20039;-82
2022/01/26 20:41:21;;;;;;;5.03;2.30;;;;;;;;;;5062178;28;20036;-81
2022/01/26 20:43:47;;;;;;;3.88;2.92;;;;;;;;;;5083782;28;25495;-81
2022/01/26 20:46:13;;;;;;;1.15;1.10;;;;;;;;;;5087762;28;20700;-82
2022/01/26 20:48:39;;;;;;;3.80;1.83;;;;;;;;;;5081846;28;20077;-82
2022/01/26 20:51:06;;;;;;;1.38;0.65;;;;;;;;;;5081627;28;20024;-82
2022/01/26 20:53:33;;;;;;;1.15;1.05;;;;;;;;;;5080104;28;20087;-82
2022/01/26 20:55:59;;;;;;;1.05;0.52;;;;;;;;;;5083768;28;20032;-82
2022/01/26 20:58:26;;;;;;;2.45;2.15;;;;;;;;;;5084507;28;20024;-82
2022/01/26 21:00:52;;;;;;;0.70;0.70;;;;;;;;;;5078255;28;20081;-82
2022/01/26 21:03:19;;;;;;;1.27;1.17;;;;;;;;;;5082745;28;20095;-82
2022/01/26 21:05:45;;;;;;;1.17;1.08;;;;;;;;;;5079437;28;20035;-83
2022/01/26 21:08:11;;;;;;;0.60;0.55;;;;;;;;;;5082050;28;20522;-82
2022/01/26 21:10:37;;;;;;;0.55;0.55;;;;;;;;;;5082482;28;20407;-83
2022/01/26 21:13:05;;;;;;;10.50;2.30;;;;;;;;;;5064173;28;20103;-82
2022/01/26 21:15:31;;;;;;;1.63;1.52;;;;;;;;;;5062531;28;20514;-81
2022/01/26 21:17:57;;;;;;;0.70;0.70;;;;;;;;;;5063267;28;20028;-81
2022/01/26 21:20:24;;;;;;;1.17;1.13;;;;;;;;;;5082880;28;20035;-82
2022/01/26 21:22:52;;;;;;;4.00;1.52;;;;;;;;;;5093776;28;20499;-81
2022/01/26 21:25:18;;;;;;;1.92;1.77;;;;;;;;;;5080627;28;20074;-81
2022/01/26 21:27:45;;;;;;;2.60;1.30;;;;;;;;;;5082851;28;20093;-82
2022/01/26 21:30:11;;;;;;;9.52;1.65;;;;;;;;;;5079551;28;20070;-81
2022/01/26 21:32:38;;;;;;;0.60;0.60;;;;;;;;;;5081245;28;20032;-81
2022/01/26 21:35:04;;;;;;;2.67;1.08;;;;;;;;;;5083047;28;20044;-82
2022/01/26 21:37:31;;;;;;;1.02;1.02;;;;;;;;;;5083179;28;20093;-82
2022/01/26 21:39:57;;;;;;;1.20;1.08;;;;;;;;;;5062817;28;20533;-82
2022/01/26 21:42:23;;;;;;;0.77;0.77;;;;;;;;;;5080306;28;20028;-82
2022/01/26 21:44:49;;;;;;;1.23;1.17;;;;;;;;;;5083610;28;20294;-81
2022/01/26 21:47:15;;;;;;;0.37;0.37;;;;;;;;;;5083588;28;20757;-81
2022/01/26 21:49:42;;;;;;;2.45;2.25;;;;;;;;;;5081337;28;20284;-81
2022/01/26 21:52:08;;;;;;;0.38;0.38;;;;;;;;;;5084892;28;20040;-82
2022/01/26 21:54:34;;;;;;;0.43;0.43;;;;;;;;;;5081301;28;20494;-82
2022/01/26 21:57:01;;;;;;;0.63;0.43;;;;;;;;;;5079780;28;20766;-81
2022/01/26 21:59:27;;;;;;;0.60;0.60;;;;;;;;;;5065170;28;20059;-82
2022/01/26 22:01:53;;;;;;;2.05;1.88;;;;;;;;;;5082744;28;20024;-82
2022/01/26 22:04:19;;;;;;;1.40;1.40;;;;;;;;;;5087348;28;20038;-80
2022/01/26 22:06:45;;;;;;;0.70;0.70;;;;;;;;;;5082870;28;20016;-80
2022/01/26 22:09:11;;;;;;;1.87;1.73;;;;;;;;;;5077619;28;21780;-79
2022/01/26 22:11:39;;;;;;;1.35;1.35;;;;;;;;;;5081653;28;20689;-79
2022/01/26 22:14:05;;;;;;;3.40;2.40;;;;;;;;;;5078769;28;20043;-80
2022/01/26 22:16:31;;;;;;;2.23;1.37;;;;;;;;;;5064779;28;20036;-78
2022/01/26 22:18:57;;;;;;;3.15;2.35;;;;;;;;;;5082283;28;20055;-78